Kane, Texas
Current Conditions -  °F | °C
As of 7:13 AM on Friday 28 Nov 2014 (Local Time) from KMFE Reporting Station
Moderate Fog Moderate Fog  
Wind Chill: 49°   Ceiling: 100
Heat Index: 49°   Visibility: 0mi
Dew Point: 49°   Wind: 0mph
Humidity: 100%   Direction: NA
Pressure: 30.32"   Gusts: NA
Location:  26.2031°N, 98.2299°W
Report Text: KMFE 281313Z 00000KT M1/4SM FG VV001 09/09 A3032 RMK AO2 T00940094
Loading
Personal Weather Stations






























Interactive Weather Map New forecast layout! Learn more

10-Day Weather Forecast

Advertisements
Track Severe Weather on mobile